Time;durP1;ratioP1;P1;durP2;ratioP2;P2;SDS_P1;SDS_P2;PMS_P1;PMS_P2;Temp;Humidity;BMP_temperature;BMP_pressure;BME280_temperature;BME280_humidity;BME280_pressure;Samples;Min_cycle;Max_cycle;Signal;HPM_P1;HPM_P2
2021/11/15 00:00:56;;;;;;;54.97;32.59;;;;;;;2.53;65.36;101994.73;472251;111;922691;-77
2021/11/15 00:02:03;;;;;;;55.39;32.23;;;;;;;2.51;65.32;101988.62;472098;111;923043;-77
2021/11/15 00:03:07;;;;;;;47.92;30.18;;;;;;;2.48;65.31;101994.27;472100;110;930476;-77
2021/11/15 00:04:13;;;;;;;52.52;31.62;;;;;;;2.46;65.34;101996.22;472663;109;923082;-80
2021/11/15 00:05:16;;;;;;;51.52;30.33;;;;;;;2.45;65.43;101994.51;472140;112;922619;-78
2021/11/15 00:06:21;;;;;;;47.63;30.33;;;;;;;2.44;65.40;101992.80;472582;111;922607;-78
2021/11/15 00:07:25;;;;;;;52.46;30.64;;;;;;;2.41;65.37;101993.92;472518;110;923088;-78
2021/11/15 00:08:29;;;;;;;46.56;28.68;;;;;;;2.40;65.41;102002.97;472861;111;922595;-78
2021/11/15 00:09:33;;;;;;;50.25;31.40;;;;;;;2.38;65.51;102004.06;472515;110;922694;-78
2021/11/15 00:10:40;;;;;;;53.32;30.83;;;;;;;2.38;65.65;102002.23;460976;112;923013;-78
2021/11/15 00:11:44;;;;;;;62.04;32.48;;;;;;;2.38;65.63;102002.23;462152;111;922667;-79
2021/11/15 00:12:53;;;;;;;52.73;30.52;;;;;;;2.37;65.55;101999.70;473026;112;922966;-78
2021/11/15 00:13:57;;;;;;;60.92;31.33;;;;;;;2.35;65.51;102001.64;472567;111;922562;-78
2021/11/15 00:15:01;;;;;;;58.51;32.51;;;;;;;2.31;65.50;102000.20;473033;110;922720;-79
2021/11/15 00:16:06;;;;;;;55.78;31.68;;;;;;;2.27;65.62;101996.88;472720;110;931170;-78
2021/11/15 00:17:10;;;;;;;53.24;31.19;;;;;;;2.23;65.67;101995.44;473518;110;923064;-79
2021/11/15 00:18:13;;;;;;;50.68;30.56;;;;;;;2.20;65.75;101994.84;473232;110;922846;-79
2021/11/15 00:19:17;;;;;;;54.62;32.81;;;;;;;2.16;65.87;101994.22;473705;110;922739;-78
2021/11/15 00:20:21;;;;;;;49.67;30.24;;;;;;;2.17;65.93;102008.53;473779;111;922496;-79
2021/11/15 00:21:25;;;;;;;53.44;29.29;;;;;;;2.14;65.96;102009.66;473508;110;922655;-79
2021/11/15 00:22:29;;;;;;;50.08;29.75;;;;;;;2.13;66.01;102001.70;473375;110;922565;-78
2021/11/15 00:23:33;;;;;;;51.72;29.80;;;;;;;2.13;66.10;101999.02;473425;111;922896;-80
2021/11/15 00:24:37;;;;;;;47.52;29.01;;;;;;;2.14;66.18;101989.97;473533;110;923042;-77
2021/11/15 00:25:40;;;;;;;46.44;29.24;;;;;;;2.14;66.19;101992.66;473386;111;922612;-78
2021/11/15 00:26:44;;;;;;;50.03;29.32;;;;;;;2.15;66.12;101986.30;472768;110;930304;-78
2021/11/15 00:27:48;;;;;;;45.08;29.86;;;;;;;2.14;66.11;101979.20;473066;109;930661;-79
2021/11/15 00:28:52;;;;;;;43.11;29.02;;;;;;;2.13;66.11;101972.11;473439;111;922903;-78
2021/11/15 00:29:59;;;;;;;46.25;27.12;;;;;;;2.13;66.11;101964.03;473734;111;930412;-79
2021/11/15 00:31:03;;;;;;;39.50;26.76;;;;;;;2.12;66.14;101973.08;473198;110;923016;-78
2021/11/15 00:32:07;;;;;;;48.46;27.61;;;;;;;2.12;66.24;101979.32;473162;109;922552;-79
2021/11/15 00:33:11;;;;;;;53.12;27.36;;;;;;;2.14;66.33;101976.52;473344;111;930327;-79
2021/11/15 00:34:14;;;;;;;47.93;28.54;;;;;;;2.15;66.37;101978.23;473715;110;930599;-79
2021/11/15 00:35:19;;;;;;;42.90;27.76;;;;;;;2.17;66.37;101970.86;472869;110;930564;-78
2021/11/15 00:36:25;;;;;;;49.51;28.43;;;;;;;2.16;66.28;101969.15;473536;110;922892;-79
2021/11/15 00:37:29;;;;;;;46.94;29.49;;;;;;;2.15;66.23;101968.29;473858;111;922537;-79
2021/11/15 00:38:33;;;;;;;47.88;28.92;;;;;;;2.14;66.19;101968.44;473605;109;922917;-78
2021/11/15 00:39:36;;;;;;;50.94;29.11;;;;;;;2.10;66.19;101965.98;473355;110;922666;-79
2021/11/15 00:40:41;;;;;;;43.89;27.24;;;;;;;2.09;66.21;101969.66;473198;110;922649;-79
2021/11/15 00:41:44;;;;;;;47.90;27.69;;;;;;;2.07;66.23;101962.70;473831;110;922909;-78
2021/11/15 00:42:48;;;;;;;46.32;29.46;;;;;;;2.04;66.24;101961.11;473515;110;930492;-78
2021/11/15 00:43:53;;;;;;;57.43;34.59;;;;;;;2.04;66.29;101971.05;471671;111;923011;-79
2021/11/15 00:44:57;;;;;;;72.35;37.37;;;;;;;2.01;66.34;101969.44;471900;111;922527;-79
2021/11/15 00:46:01;;;;;;;86.22;45.73;;;;;;;2.01;66.40;101972.13;474289;110;922428;-79
2021/11/15 00:47:05;;;;;;;94.96;52.24;;;;;;;1.99;66.41;101971.39;473673;111;922964;-78
2021/11/15 00:48:09;;;;;;;67.74;37.24;;;;;;;1.99;66.45;101974.08;473589;109;922764;-78
2021/11/15 00:49:14;;;;;;;62.08;38.04;;;;;;;1.99;66.56;101967.84;472591;111;922682;-78
2021/11/15 00:50:20;;;;;;;62.01;34.95;;;;;;;1.98;66.53;101972.40;472972;111;922973;-79
2021/11/15 00:51:26;;;;;;;56.83;33.18;;;;;;;1.97;66.62;101964.45;472613;110;922945;-78
2021/11/15 00:52:30;;;;;;;55.94;32.39;;;;;;;1.94;66.58;101962.84;472946;110;923609;-79
2021/11/15 00:53:34;;;;;;;50.36;32.48;;;;;;;1.94;66.65;101970.91;473772;111;922636;-78
2021/11/15 00:54:37;;;;;;;55.52;32.90;;;;;;;1.93;66.73;101966.52;473427;111;922541;-77
2021/11/15 00:55:41;;;;;;;56.71;32.21;;;;;;;1.94;66.77;101970.91;473334;110;930591;-78
2021/11/15 00:56:44;;;;;;;53.82;30.48;;;;;;;1.93;66.75;101961.12;473541;109;930599;-78
2021/11/15 00:57:48;;;;;;;49.05;29.85;;;;;;;1.94;66.72;101959.30;473610;109;923119;-78
2021/11/15 00:58:52;;;;;;;50.22;30.20;;;;;;;1.92;66.78;101959.45;473746;111;922723;-78
2021/11/15 00:59:56;;;;;;;43.49;26.74;;;;;;;1.91;66.80;101955.05;474226;110;922780;-76
2021/11/15 01:01:00;;;;;;;49.09;29.04;;;;;;;1.91;66.88;101964.94;473341;110;922518;-78
2021/11/15 01:02:05;;;;;;;47.46;27.81;;;;;;;1.93;66.99;101968.38;473600;111;922989;-79
2021/11/15 01:03:12;;;;;;;45.87;28.23;;;;;;;1.95;67.01;101959.18;473555;109;923217;-78
2021/11/15 01:04:15;;;;;;;47.24;29.56;;;;;;;1.97;67.07;101973.38;473202;110;922657;-78
2021/11/15 01:05:19;;;;;;;44.33;29.12;;;;;;;1.98;66.99;101977.78;473491;110;922466;-78
2021/11/15 01:06:23;;;;;;;49.92;29.15;;;;;;;2.00;67.08;101981.17;473290;111;922639;-77
2021/11/15 01:07:27;;;;;;;50.55;30.49;;;;;;;2.02;67.17;101973.84;473853;110;922492;-78
2021/11/15 01:08:30;;;;;;;50.14;30.08;;;;;;;2.06;67.19;101977.98;472939;110;930397;-78
2021/11/15 01:09:34;;;;;;;54.41;30.46;;;;;;;2.08;67.18;101976.04;473734;110;922604;-78
2021/11/15 01:10:38;;;;;;;53.71;30.18;;;;;;;2.12;67.17;101973.08;473293;110;922595;-79
2021/11/15 01:11:42;;;;;;;51.02;29.93;;;;;;;2.16;67.21;101977.22;473620;110;922613;-78
2021/11/15 01:12:46;;;;;;;46.24;30.31;;;;;;;2.20;67.18;101976.01;473208;111;923476;-77
2021/11/15 01:13:50;;;;;;;52.69;32.27;;;;;;;2.24;67.12;101972.08;473155;110;922461;-78
2021/11/15 01:14:53;;;;;;;54.18;32.30;;;;;;;2.28;66.98;101970.83;473670;111;922453;-79
2021/11/15 01:15:58;;;;;;;55.54;30.29;;;;;;;2.29;66.74;101959.95;472917;110;930541;-79
2021/11/15 01:17:03;;;;;;;53.15;31.62;;;;;;;2.29;66.66;101964.47;466941;110;922713;-80
2021/11/15 01:18:08;;;;;;;52.54;30.36;;;;;;;2.27;66.46;101966.42;463396;113;922642;-80
2021/11/15 01:19:14;;;;;;;49.41;29.89;;;;;;;2.24;66.42;101969.39;463470;114;922631;-80
2021/11/15 01:20:21;;;;;;;46.15;30.48;;;;;;;2.21;66.31;101962.41;462626;114;922851;-79
2021/11/15 01:21:27;;;;;;;53.64;30.27;;;;;;;2.18;66.28;101968.05;463533;111;923015;-79
2021/11/15 01:22:30;;;;;;;45.34;30.49;;;;;;;2.15;66.25;101962.91;454603;116;922637;-81
2021/11/15 01:23:34;;;;;;;47.14;29.97;;;;;;;2.11;66.29;101961.47;461944;113;922816;-81
2021/11/15 01:24:37;;;;;;;47.34;29.02;;;;;;;2.09;66.38;101955.37;461488;113;922544;-79
2021/11/15 01:25:42;;;;;;;49.11;31.52;;;;;;;2.09;66.43;101964.27;462076;112;923123;-80
2021/11/15 01:26:46;;;;;;;54.01;32.16;;;;;;;2.08;66.56;101967.97;461554;114;930573;-80
2021/11/15 01:27:49;;;;;;;61.13;34.30;;;;;;;2.11;66.66;101969.53;460545;114;930722;-81
2021/11/15 01:28:53;;;;;;;58.46;34.00;;;;;;;2.14;66.75;101973.82;453625;115;922667;-80
2021/11/15 01:29:57;;;;;;;52.82;32.24;;;;;;;2.16;66.72;101979.91;459595;114;930614;-79
2021/11/15 01:31:01;;;;;;;45.82;29.36;;;;;;;2.17;66.54;101978.94;460941;114;923022;-78
2021/11/15 01:32:06;;;;;;;46.39;30.16;;;;;;;2.16;66.34;101986.15;461269;113;922289;-80
2021/11/15 01:33:09;;;;;;;51.56;31.64;;;;;;;2.13;66.25;101988.25;453946;114;922662;-80
2021/11/15 01:34:14;;;;;;;47.04;30.14;;;;;;;2.09;66.22;101995.73;461288;112;923215;-80
2021/11/15 01:35:18;;;;;;;50.36;30.39;;;;;;;2.05;66.21;101987.03;461212;114;922778;-79
2021/11/15 01:36:23;;;;;;;48.15;30.63;;;;;;;2.01;66.20;102001.72;459907;113;922883;-79
2021/11/15 01:37:26;;;;;;;51.12;32.58;;;;;;;2.00;66.34;102010.77;459857;113;922560;-79
2021/11/15 01:38:30;;;;;;;56.62;33.55;;;;;;;2.00;66.43;102013.45;461682;112;923182;-79
2021/11/15 01:39:35;;;;;;;65.78;36.69;;;;;;;2.00;66.57;102009.91;462739;114;922472;-80
2021/11/15 01:40:39;;;;;;;65.08;36.97;;;;;;;2.02;66.66;102014.20;455108;114;922416;-80
2021/11/15 01:41:43;;;;;;;62.44;38.54;;;;;;;2.05;66.68;102013.94;462223;113;922645;-79
2021/11/15 01:42:47;;;;;;;63.92;38.26;;;;;;;2.09;66.65;102012.70;462168;114;922832;-80
2021/11/15 01:43:52;;;;;;;62.65;38.11;;;;;;;2.12;66.52;102010.75;462560;114;922664;-80
2021/11/15 01:44:56;;;;;;;65.36;37.56;;;;;;;2.14;66.49;102014.18;461505;113;922461;-81
2021/11/15 01:46:00;;;;;;;57.82;35.18;;;;;;;2.18;66.39;102012.94;461818;112;922736;-78
2021/11/15 01:47:05;;;;;;;59.32;35.70;;;;;;;2.19;66.22;102003.89;462302;114;923088;-79
2021/11/15 01:48:13;;;;;;;58.86;36.24;;;;;;;2.20;66.10;102009.16;454149;115;922649;-80
2021/11/15 01:49:17;;;;;;;57.47;35.20;;;;;;;2.21;66.09;101991.15;444859;116;923037;-79
2021/11/15 01:50:22;;;;;;;56.52;35.45;;;;;;;2.22;66.04;101984.79;461492;113;923176;-80
2021/11/15 01:51:26;;;;;;;59.55;36.48;;;;;;;2.23;66.00;101971.22;460785;113;922603;-81
2021/11/15 01:52:30;;;;;;;63.25;36.37;;;;;;;2.23;65.87;101968.53;460798;113;922920;-80
2021/11/15 01:53:34;;;;;;;56.65;35.26;;;;;;;2.23;65.80;101973.05;461520;113;922717;-78
2021/11/15 01:54:38;;;;;;;61.04;37.86;;;;;;;2.23;65.85;101987.36;460373;113;922978;-80
2021/11/15 01:55:43;;;;;;;59.17;36.53;;;;;;;2.23;65.84;101991.89;459941;113;922916;-79
2021/11/15 01:56:51;;;;;;;59.72;37.39;;;;;;;2.24;65.81;102001.67;460886;113;922648;-80
2021/11/15 01:57:56;;;;;;;55.92;35.29;;;;;;;2.25;65.72;101998.01;459612;114;922725;-79
2021/11/15 01:59:04;;;;;;;55.62;34.86;;;;;;;2.25;65.57;102004.25;460263;112;922588;-80
2021/11/15 02:00:14;;;;;;;59.19;35.58;;;;;;;2.23;65.51;102002.65;453424;116;922872;-79
2021/11/15 02:01:18;;;;;;;58.13;35.16;;;;;;;2.22;65.45;102000.94;454782;113;923423;-81
2021/11/15 02:02:26;;;;;;;57.39;34.51;;;;;;;2.20;65.51;101994.84;461283;112;922527;-79
2021/11/15 02:03:29;;;;;;;61.92;35.89;;;;;;;2.19;65.55;101991.30;461986;113;922503;-79
2021/11/15 02:04:33;;;;;;;57.08;34.77;;;;;;;2.19;65.56;101995.82;454804;116;922590;-79
2021/11/15 02:05:37;;;;;;;53.65;35.10;;;;;;;2.19;65.58;101993.98;453972;114;923163;-79
2021/11/15 02:06:41;;;;;;;49.77;32.76;;;;;;;2.19;65.57;101985.05;455396;114;922772;-78
2021/11/15 02:07:45;;;;;;;53.36;33.95;;;;;;;2.21;65.51;101986.63;463602;114;928985;-76
2021/11/15 02:08:49;;;;;;;51.33;33.98;;;;;;;2.22;65.45;101987.48;463472;114;922594;-80
2021/11/15 02:09:53;;;;;;;50.00;33.14;;;;;;;2.23;65.43;101983.81;462597;111;922932;-79
2021/11/15 02:10:57;;;;;;;48.79;33.25;;;;;;;2.24;65.32;101989.08;463129;113;923303;-79
2021/11/15 02:12:01;;;;;;;48.56;33.14;;;;;;;2.24;65.24;101980.15;454226;116;922750;-77
2021/11/15 02:13:05;;;;;;;48.24;32.02;;;;;;;2.25;65.22;101992.63;461717;114;930453;-78
2021/11/15 02:14:09;;;;;;;49.71;32.86;;;;;;;2.25;65.19;101993.48;453204;114;922751;-79
2021/11/15 02:15:13;;;;;;;46.05;31.35;;;;;;;2.26;65.15;101988.96;460083;114;928969;-78
2021/11/15 02:16:19;;;;;;;49.98;33.27;;;;;;;2.25;64.99;101988.10;461383;114;922724;-78
2021/11/15 02:17:23;;;;;;;48.02;32.40;;;;;;;2.24;64.86;101982.84;462221;112;922667;-80
2021/11/15 02:18:26;;;;;;;40.95;30.74;;;;;;;2.19;64.74;101975.16;472443;111;923029;-79
2021/11/15 02:19:32;;;;;;;43.53;31.30;;;;;;;2.15;64.64;101972.84;473058;110;922483;-79
2021/11/15 02:20:52;;;;;;;47.07;30.86;;;;;;;2.11;64.69;101982.98;473254;111;922378;-78
2021/11/15 02:21:56;;;;;;;41.57;29.92;;;;;;;2.08;64.84;101997.56;473263;111;922998;-80
2021/11/15 02:22:59;;;;;;;40.00;30.23;;;;;;;2.07;65.05;102008.44;473477;109;923060;-80
2021/11/15 02:24:04;;;;;;;43.38;30.52;;;;;;;2.07;65.15;102011.98;471616;112;922361;-77
2021/11/15 02:25:08;;;;;;;47.61;31.64;;;;;;;2.07;65.08;102000.37;472689;112;923187;-80
2021/11/15 02:26:16;;;;;;;45.97;31.11;;;;;;;2.08;65.05;101999.39;472645;110;922522;-80
2021/11/15 02:27:20;;;;;;;49.18;31.89;;;;;;;2.07;65.11;102006.61;473028;110;922693;-79
2021/11/15 02:28:30;;;;;;;47.06;31.56;;;;;;;2.08;65.18;102012.84;464143;113;922676;-79
2021/11/15 02:29:34;;;;;;;41.12;31.56;;;;;;;2.08;65.23;102027.16;473208;112;923129;-79
2021/11/15 02:30:38;;;;;;;41.85;29.96;;;;;;;2.10;65.30;102019.80;472911;112;923343;-80
2021/11/15 02:31:42;;;;;;;37.32;29.24;;;;;;;2.13;65.27;102017.84;472473;110;922644;-78
2021/11/15 02:32:46;;;;;;;39.72;30.21;;;;;;;2.16;65.22;102012.20;473152;111;922504;-78
2021/11/15 02:33:52;;;;;;;37.77;28.92;;;;;;;2.18;65.08;102010.25;472812;112;922561;-81
2021/11/15 02:34:55;;;;;;;37.74;28.44;;;;;;;2.20;65.06;102014.54;472081;110;930582;-75
2021/11/15 02:36:00;;;;;;;41.05;29.65;;;;;;;2.23;65.02;102016.96;472568;110;923174;-77
2021/11/15 02:37:04;;;;;;;39.54;29.54;;;;;;;2.25;64.93;102012.32;460676;112;922723;-79
2021/11/15 02:38:08;;;;;;;39.00;28.64;;;;;;;2.28;64.85;102012.05;461746;112;922708;-78
2021/11/15 02:39:12;;;;;;;38.30;29.02;;;;;;;2.30;64.78;102014.62;472614;110;922706;-79
2021/11/15 02:40:21;;;;;;;37.74;28.78;;;;;;;2.33;64.73;102006.28;472727;111;922522;-79
2021/11/15 02:41:26;;;;;;;37.01;28.67;;;;;;;2.34;64.55;102000.78;472487;111;922631;-79
2021/11/15 02:42:30;;;;;;;34.00;27.48;;;;;;;2.32;64.32;101997.36;472242;112;923102;-77
2021/11/15 02:43:34;;;;;;;37.14;29.25;;;;;;;2.31;64.25;101994.81;472081;109;922621;-78
2021/11/15 02:44:39;;;;;;;34.28;27.48;;;;;;;2.29;64.25;101996.77;472390;111;922560;-79
2021/11/15 02:45:43;;;;;;;33.94;26.53;;;;;;;2.28;64.25;101990.53;472487;111;930608;-78
2021/11/15 02:46:47;;;;;;;34.18;28.16;;;;;;;2.27;64.22;101996.03;472564;110;930819;-80
2021/11/15 02:47:51;;;;;;;30.03;25.27;;;;;;;2.25;64.17;102001.56;472499;112;922582;-79
2021/11/15 02:48:55;;;;;;;30.16;24.99;;;;;;;2.26;64.20;102007.80;471966;111;923000;-79
2021/11/15 02:50:00;;;;;;;29.55;24.42;;;;;;;2.25;64.15;102006.94;472549;112;923439;-78
2021/11/15 02:51:03;;;;;;;34.48;25.31;;;;;;;2.24;64.08;102007.91;472941;111;922575;-78
2021/11/15 02:52:08;;;;;;;31.92;25.45;;;;;;;2.22;64.08;102012.55;473179;110;923015;-79
2021/11/15 02:53:12;;;;;;;31.39;26.21;;;;;;;2.19;64.00;102012.82;472484;111;922672;-79
2021/11/15 02:54:16;;;;;;;28.71;24.94;;;;;;;2.15;63.93;102007.83;473149;112;922535;-77
2021/11/15 02:55:20;;;;;;;34.65;26.81;;;;;;;2.08;63.82;101996.70;472506;109;922596;-78
2021/11/15 02:56:25;;;;;;;32.57;26.30;;;;;;;2.01;63.83;101998.17;472328;111;922553;-79
2021/11/15 02:57:28;;;;;;;32.85;25.41;;;;;;;1.91;63.82;101998.08;472808;111;922917;-78
2021/11/15 02:58:33;;;;;;;27.44;23.75;;;;;;;1.83;63.95;101999.66;473158;111;922481;-77
2021/11/15 02:59:37;;;;;;;46.23;28.33;;;;;;;1.75;64.09;101994.92;473172;110;922571;-78
2021/11/15 03:00:50;;;;;;;49.58;31.06;;;;;;;1.68;64.20;101996.37;472952;110;922702;-80
2021/11/15 03:01:54;;;;;;;40.41;29.01;;;;;;;1.62;64.31;101996.86;472561;111;922673;-78
2021/11/15 03:02:58;;;;;;;46.35;30.76;;;;;;;1.56;64.38;101992.83;473239;112;922463;-78
2021/11/15 03:04:02;;;;;;;54.08;33.95;;;;;;;1.50;64.58;101996.00;473023;111;922445;-77
2021/11/15 03:05:08;;;;;;;53.11;33.30;;;;;;;1.47;64.72;102003.47;472756;111;930843;-77
2021/11/15 03:06:13;;;;;;;60.22;34.07;;;;;;;1.44;64.90;102003.69;472960;112;922906;-78
2021/11/15 03:07:17;;;;;;;55.33;32.12;;;;;;;1.41;65.03;102004.80;473238;112;922466;-79
2021/11/15 03:08:22;;;;;;;50.56;31.26;;;;;;;1.38;65.07;101999.66;472995;110;922585;-78
2021/11/15 03:09:26;;;;;;;55.41;33.55;;;;;;;1.35;65.06;101999.91;473239;110;922442;-81
2021/11/15 03:10:30;;;;;;;54.66;32.21;;;;;;;1.31;65.08;102006.52;472911;111;922414;-79
2021/11/15 03:11:34;;;;;;;53.75;31.50;;;;;;;1.29;65.18;102000.39;473156;111;922505;-76
2021/11/15 03:12:38;;;;;;;53.78;31.88;;;;;;;1.26;65.19;101997.96;472391;110;923163;-78
2021/11/15 03:13:44;;;;;;;55.94;32.90;;;;;;;1.22;65.20;101997.33;471767;112;922682;-79
2021/11/15 03:14:49;;;;;;;54.32;32.99;;;;;;;1.17;65.25;101988.77;472663;111;922586;-79
2021/11/15 03:15:53;;;;;;;51.45;32.08;;;;;;;1.13;65.33;101995.37;473255;110;922578;-77
2021/11/15 03:16:57;;;;;;;54.80;34.73;;;;;;;1.10;65.46;101989.39;472584;111;922428;-79
2021/11/15 03:18:05;;;;;;;72.16;42.79;;;;;;;1.08;65.59;101996.70;470840;110;922877;-80
2021/11/15 03:19:08;;;;;;;65.37;41.43;;;;;;;1.04;65.71;101993.41;467152;111;923189;-79
2021/11/15 03:20:12;;;;;;;67.52;39.92;;;;;;;1.03;65.83;101988.14;467415;111;922538;-78
2021/11/15 03:21:19;;;;;;;69.09;40.48;;;;;;;1.01;65.91;101990.94;467460;111;923021;-79
2021/11/15 03:22:24;;;;;;;60.62;37.57;;;;;;;1.00;65.97;101991.05;467069;111;923122;-79
2021/11/15 03:23:31;;;;;;;55.60;37.60;;;;;;;0.99;66.04;101989.37;466995;111;922643;-79
2021/11/15 03:24:35;;;;;;;56.68;35.11;;;;;;;0.99;66.12;101997.42;466985;111;922430;-82
2021/11/15 03:25:38;;;;;;;54.99;36.15;;;;;;;1.00;66.36;101996.42;466672;111;923055;-79
2021/11/15 03:26:42;;;;;;;56.99;35.98;;;;;;;1.02;66.50;101995.34;468290;111;922572;-79
2021/11/15 03:27:46;;;;;;;54.69;34.61;;;;;;;1.07;66.56;101997.67;465778;111;922781;-80
2021/11/15 03:28:52;;;;;;;54.85;34.64;;;;;;;1.10;66.57;101998.27;466371;111;922995;-78
2021/11/15 03:29:56;;;;;;;50.31;33.30;;;;;;;1.13;66.56;101995.37;465316;111;923016;-79
2021/11/15 03:31:06;;;;;;;48.89;31.56;;;;;;;1.14;66.56;101991.71;465382;111;922561;-79
2021/11/15 03:32:13;;;;;;;48.56;31.93;;;;;;;1.17;66.43;102006.72;466513;111;922635;-77
2021/11/15 03:33:17;;;;;;;55.68;33.02;;;;;;;1.16;66.28;102010.38;463915;111;922640;-77
2021/11/15 03:34:21;;;;;;;50.42;32.29;;;;;;;1.15;66.23;102011.38;464539;111;922581;-78
2021/11/15 03:35:25;;;;;;;58.26;39.21;;;;;;;1.13;66.29;102019.55;466017;111;922591;-78
2021/11/15 03:36:30;;;;;;;49.63;33.53;;;;;;;1.12;66.25;102012.45;464316;111;922668;-79
2021/11/15 03:37:34;;;;;;;47.31;32.11;;;;;;;1.11;66.23;102009.87;464723;111;923252;-80
2021/11/15 03:38:38;;;;;;;42.18;30.27;;;;;;;1.09;66.15;102015.39;468302;110;922841;-76
2021/11/15 03:39:42;;;;;;;42.08;30.94;;;;;;;1.08;66.16;102018.19;468124;111;922611;-78
2021/11/15 03:40:46;;;;;;;44.95;30.59;;;;;;;1.06;66.22;102022.81;468515;111;922533;-77
2021/11/15 03:41:50;;;;;;;45.29;30.91;;;;;;;1.06;66.41;102018.30;468111;111;923167;-78
2021/11/15 03:42:58;;;;;;;49.29;32.24;;;;;;;1.09;66.56;102020.77;468269;111;922688;-78
2021/11/15 03:44:03;;;;;;;45.68;31.41;;;;;;;1.13;66.54;102021.38;468055;111;922977;-78
2021/11/15 03:45:09;;;;;;;46.62;30.56;;;;;;;1.15;66.41;102017.61;465605;111;922599;-79
2021/11/15 03:46:13;;;;;;;57.54;33.82;;;;;;;1.17;66.17;102017.46;467477;111;922607;-78
2021/11/15 03:47:18;;;;;;;62.74;34.86;;;;;;;1.16;66.03;102015.74;469722;111;923057;-80
2021/11/15 03:48:22;;;;;;;56.62;34.20;;;;;;;1.12;65.95;102015.14;466665;111;923196;-79
2021/11/15 03:49:25;;;;;;;65.53;35.76;;;;;;;1.09;65.90;102007.33;466232;111;930615;-76
2021/11/15 03:50:29;;;;;;;63.55;37.16;;;;;;;1.03;65.87;102005.12;467553;111;922691;-78
2021/11/15 03:51:34;;;;;;;65.74;36.32;;;;;;;1.01;65.92;102015.11;467911;110;922611;-79
2021/11/15 03:52:40;;;;;;;60.74;34.56;;;;;;;0.99;66.05;102016.22;465714;111;930377;-79
2021/11/15 03:53:44;;;;;;;55.52;33.91;;;;;;;0.99;66.30;102018.91;465496;111;922746;-78
2021/11/15 03:54:48;;;;;;;62.22;34.70;;;;;;;1.04;66.48;102022.09;466983;111;922455;-77
2021/11/15 03:55:53;;;;;;;62.76;34.30;;;;;;;1.07;66.44;102022.70;466527;111;923085;-79
2021/11/15 03:56:56;;;;;;;62.35;36.22;;;;;;;1.12;66.40;102019.66;466267;111;922445;-78
2021/11/15 03:58:00;;;;;;;55.14;33.79;;;;;;;1.16;66.49;102016.60;469478;111;923188;-79
2021/11/15 03:59:06;;;;;;;67.38;38.06;;;;;;;1.22;66.50;102016.13;466819;111;922339;-76
2021/11/15 04:00:13;;;;;;;75.38;42.52;;;;;;;1.28;66.53;102019.31;466589;111;922417;-78
2021/11/15 04:01:25;;;;;;;78.17;45.03;;;;;;;1.35;66.62;102016.03;464632;111;922268;-78
2021/11/15 04:02:30;;;;;;;77.54;46.45;;;;;;;1.44;66.61;102014.44;465568;111;930812;-79
2021/11/15 04:03:37;;;;;;;80.41;46.40;;;;;;;1.51;66.47;102023.74;466348;111;922510;-79
2021/11/15 04:04:58;;;;;;;75.10;45.09;;;;;;;1.56;66.44;102035.84;469380;111;923033;-77
2021/11/15 04:05:57;;;;;;;80.90;42.89;;;;;;;1.64;66.43;102035.25;467570;111;922560;-77
2021/11/15 04:07:01;;;;;;;77.81;43.54;;;;;;;1.71;66.33;102036.45;466788;111;922807;-78
2021/11/15 04:08:06;;;;;;;79.99;46.82;;;;;;;1.77;66.19;102030.58;467667;111;923071;-76
2021/11/15 04:09:10;;;;;;;75.52;43.55;;;;;;;1.81;65.91;102026.69;468220;111;922735;-76
2021/11/15 04:10:19;;;;;;;72.51;44.71;;;;;;;1.84;65.71;102028.27;467804;111;922674;-77
2021/11/15 04:11:25;;;;;;;77.86;45.33;;;;;;;1.83;65.62;102031.92;460511;112;922704;-76
2021/11/15 04:12:30;;;;;;;78.73;44.73;;;;;;;1.82;65.46;102028.38;460139;111;923332;-78
2021/11/15 04:13:38;;;;;;;74.03;43.76;;;;;;;1.81;65.35;102023.14;467691;111;922554;-75
2021/11/15 04:14:41;;;;;;;76.10;43.66;;;;;;;1.79;65.19;102025.09;466405;111;923170;-77
2021/11/15 04:15:47;;;;;;;70.25;41.76;;;;;;;1.76;65.10;102026.21;466415;111;922772;-77
2021/11/15 04:16:52;;;;;;;67.83;42.43;;;;;;;1.73;65.05;102022.89;466133;111;922617;-76
2021/11/15 04:17:56;;;;;;;70.05;42.78;;;;;;;1.70;65.00;102024.01;467480;111;923291;-77
2021/11/15 04:19:03;;;;;;;70.44;39.32;;;;;;;1.66;65.02;102028.75;472671;110;931007;-76
2021/11/15 04:20:10;;;;;;;63.97;39.80;;;;;;;1.62;65.08;102031.81;472346;112;923053;-78
2021/11/15 04:21:15;;;;;;;63.69;39.01;;;;;;;1.58;65.18;102039.27;472547;110;922685;-77
2021/11/15 04:22:19;;;;;;;65.91;40.38;;;;;;;1.55;65.21;102039.50;472402;110;922542;-76
2021/11/15 04:23:23;;;;;;;60.02;37.43;;;;;;;1.53;65.25;102041.47;472252;111;923293;-77
2021/11/15 04:24:27;;;;;;;56.53;37.73;;;;;;;1.53;65.29;102035.23;472798;110;922531;-78
2021/11/15 04:25:31;;;;;;;57.16;36.56;;;;;;;1.53;65.37;102029.86;472511;110;930477;-76
2021/11/15 04:26:34;;;;;;;49.69;34.48;;;;;;;1.52;65.37;102037.07;471994;110;922613;-76
2021/11/15 04:27:40;;;;;;;50.12;31.21;;;;;;;1.52;65.43;102038.89;472700;109;923320;-80
2021/11/15 04:28:43;;;;;;;40.54;29.89;;;;;;;1.52;65.47;102038.89;472328;109;922614;-76
2021/11/15 04:29:47;;;;;;;44.51;29.86;;;;;;;1.53;65.68;102037.93;472847;111;922714;-76
2021/11/15 04:30:52;;;;;;;51.30;31.06;;;;;;;1.58;65.84;102033.05;473046;110;930207;-76
2021/11/15 04:31:55;;;;;;;43.04;29.48;;;;;;;1.62;65.89;102046.11;472702;109;922677;-76
2021/11/15 04:33:03;;;;;;;49.45;33.72;;;;;;;1.68;66.07;102039.39;472841;111;922537;-77
2021/11/15 04:34:07;;;;;;;55.13;33.42;;;;;;;1.75;66.19;102037.08;472716;110;922797;-77
2021/11/15 04:35:14;;;;;;;51.91;30.92;;;;;;;1.83;66.20;102040.85;472046;110;922827;-77
2021/11/15 04:36:19;;;;;;;52.22;29.73;;;;;;;1.91;66.17;102038.42;471449;111;930419;-77
2021/11/15 04:37:23;;;;;;;43.41;29.98;;;;;;;1.99;66.17;102041.33;472361;111;922704;-76
2021/11/15 04:38:26;;;;;;;41.84;30.32;;;;;;;2.07;66.12;102048.79;473070;111;922720;-80
2021/11/15 04:39:30;;;;;;;50.35;32.14;;;;;;;2.14;66.01;102051.84;472107;110;922671;-78
2021/11/15 04:40:35;;;;;;;37.68;28.48;;;;;;;2.21;65.90;102050.34;463209;112;922852;-75
2021/11/15 04:41:40;;;;;;;30.87;24.64;;;;;;;2.27;65.79;102048.02;464539;112;922718;-76
2021/11/15 04:42:44;;;;;;;29.96;23.72;;;;;;;2.33;65.62;102050.20;472969;112;922614;-77
2021/11/15 04:43:48;;;;;;;29.62;22.73;;;;;;;2.37;65.58;102048.97;472450;110;922645;-75
2021/11/15 04:44:52;;;;;;;26.89;22.68;;;;;;;2.42;65.44;102056.69;472551;111;922574;-76
2021/11/15 04:45:56;;;;;;;26.65;23.31;;;;;;;2.47;65.36;102049.95;472651;110;922437;-77
2021/11/15 04:46:59;;;;;;;20.57;18.12;;;;;;;2.51;65.23;102056.78;473357;111;922701;-78
2021/11/15 04:48:04;;;;;;;21.85;19.64;;;;;;;2.55;65.07;102051.13;472962;109;930526;-79
2021/11/15 04:49:09;;;;;;;21.84;19.46;;;;;;;2.58;64.94;102050.89;472436;110;922556;-78
2021/11/15 04:50:15;;;;;;;25.93;20.53;;;;;;;2.61;64.77;102053.31;472795;111;922975;-77
2021/11/15 04:51:18;;;;;;;25.53;20.27;;;;;;;2.60;64.59;102049.77;473093;110;922558;-76
2021/11/15 04:52:22;;;;;;;27.32;20.29;;;;;;;2.60;64.49;102044.38;472828;110;923068;-75
2021/11/15 04:53:26;;;;;;;24.07;19.84;;;;;;;2.59;64.43;102048.08;472330;111;922630;-75
2021/11/15 04:54:29;;;;;;;21.14;19.06;;;;;;;2.59;64.45;102047.22;472840;111;930541;-79